Time;durP1;ratioP1;P1;durP2;ratioP2;P2;SDS_P1;SDS_P2;PMS_P1;PMS_P2;Temp;Humidity;BMP_temperature;BMP_pressure;BME280_temperature;BME280_humidity;BME280_pressure;Samples;Min_cycle;Max_cycle;Signal;HPM_P1;HPM_P2
2022/07/26 00:00:09;;;;;;;4.73;4.27;;;21.80;7.40;;;;;;8322585;28;20957;-66
2022/07/26 00:04:43;;;;;;;4.57;4.10;;;21.70;46.50;;;;;;8319837;28;20194;-63
2022/07/26 00:08:44;;;;;;;5.60;4.83;;;21.70;99.90;;;;;;8320844;28;20223;-64
2022/07/26 00:12:45;;;;;;;4.87;4.33;;;21.40;99.90;;;;;;8336306;28;20292;-64
2022/07/26 00:16:46;;;;;;;9.40;4.70;;;21.50;35.40;;;;;;8334291;28;20261;-65
2022/07/26 00:20:48;;;;;;;10.80;5.33;;;21.90;2.20;;;;;;8321175;28;20208;-70
2022/07/26 00:24:49;;;;;;;8.67;5.83;;;22.10;1.00;;;;;;8321431;28;20185;-67
2022/07/26 00:28:49;;;;;;;5.90;5.30;;;22.20;1.00;;;;;;8339322;28;20217;-63
2022/07/26 00:32:51;;;;;;;7.60;5.87;;;22.30;1.00;;;;;;8323241;28;20189;-65
2022/07/26 00:36:52;;;;;;;8.43;6.27;;;22.10;32.30;;;;;;8325373;28;20193;-66
2022/07/26 00:40:53;;;;;;;10.23;7.03;;;22.20;15.70;;;;;;8337819;28;20188;-67
2022/07/26 00:44:54;;;;;;;10.03;8.00;;;22.40;66.10;;;;;;8322138;28;20397;-64
2022/07/26 00:48:55;;;;;;;10.13;7.80;;;22.50;85.20;;;;;;8342556;28;20562;-67
2022/07/26 00:52:56;;;;;;;10.73;8.27;;;22.60;99.90;;;;;;8336494;28;20296;-65
2022/07/26 00:56:57;;;;;;;9.10;8.13;;;22.60;99.90;;;;;;8356256;28;20396;-65
2022/07/26 01:00:58;;;;;;;12.83;7.93;;;22.50;99.90;;;;;;8338394;28;20450;-65
2022/07/26 01:04:59;;;;;;;9.27;7.40;;;22.50;99.90;;;;;;8327533;28;20247;-66
2022/07/26 01:09:00;;;;;;;9.90;8.80;;;22.40;99.90;;;;;;8324577;28;20531;-65
2022/07/26 01:13:01;;;;;;;13.27;8.40;;;22.40;99.90;;;;;;8328453;28;20196;-67
2022/07/26 01:17:01;;;;;;;10.10;8.40;;;22.30;99.90;;;;;;8329794;28;20191;-66
2022/07/26 01:21:03;;;;;;;13.00;8.30;;;22.20;1.00;;;;;;8334415;28;20200;-67
2022/07/26 01:25:05;;;;;;;8.70;7.90;;;22.20;1.00;;;;;;8341221;28;20203;-68
2022/07/26 01:29:06;;;;;;;12.67;8.37;;;22.10;1.00;;;;;;8342294;28;20301;-65
2022/07/26 01:33:06;;;;;;;10.00;9.00;;;22.00;58.80;;;;;;8320269;28;20198;-65
2022/07/26 01:37:08;;;;;;;10.73;9.20;;;21.90;99.90;;;;;;8327840;28;20192;-65
2022/07/26 01:41:08;;;;;;;10.60;9.50;;;21.80;99.90;;;;;;8329330;28;20224;-66
2022/07/26 01:45:10;;;;;;;9.97;8.97;;;21.60;1.00;;;;;;8336246;28;20193;-64
2022/07/26 01:49:11;;;;;;;10.60;9.07;;;21.40;99.90;;;;;;8337008;28;20214;-65
2022/07/26 01:53:12;;;;;;;9.43;8.57;;;21.20;99.90;;;;;;8334478;28;20271;-66
2022/07/26 01:57:13;;;;;;;11.23;8.50;;;21.10;1.00;;;;;;8344774;28;20280;-66
2022/07/26 02:01:14;;;;;;;10.43;9.40;;;21.00;99.90;;;;;;8333689;28;20190;-65
2022/07/26 02:05:15;;;;;;;10.83;8.83;;;20.80;99.90;;;;;;8322824;28;20213;-64
2022/07/26 02:09:16;;;;;;;8.57;7.50;;;20.70;1.00;;;;;;8339031;28;20214;-66
2022/07/26 02:13:17;;;;;;;8.70;7.80;;;20.70;20.20;;;;;;8326468;28;20189;-66
2022/07/26 02:17:18;;;;;;;8.00;7.20;;;20.60;1.00;;;;;;8323791;28;20182;-66
2022/07/26 02:21:19;;;;;;;8.90;7.40;;;20.50;1.00;;;;;;8337127;28;20472;-65
2022/07/26 02:25:19;;;;;;;8.30;7.00;;;20.50;1.00;;;;;;8333917;28;20647;-64
2022/07/26 02:29:20;;;;;;;7.13;6.53;;;20.40;99.90;;;;;;8319944;28;20217;-65
2022/07/26 02:33:21;;;;;;;10.83;6.80;;;20.40;99.90;;;;;;8331330;28;20315;-66
2022/07/26 02:37:22;;;;;;;8.73;6.17;;;20.30;99.90;;;;;;8321304;28;20209;-64
2022/07/26 02:41:22;;;;;;;6.30;5.70;;;20.30;99.90;;;;;;8337421;28;20273;-66
2022/07/26 02:45:24;;;;;;;6.23;5.63;;;20.20;99.90;;;;;;8333878;28;20186;-66
2022/07/26 02:49:25;;;;;;;5.87;5.27;;;20.30;1.00;;;;;;8318931;28;20217;-65
2022/07/26 02:53:25;;;;;;;6.80;5.63;;;20.20;1.00;;;;;;8321881;28;20319;-64
2022/07/26 02:57:26;;;;;;;5.67;5.17;;;20.10;39.40;;;;;;8320873;28;20194;-65
2022/07/26 03:01:27;;;;;;;6.23;4.87;;;20.00;94.00;;;;;;8318825;28;20254;-68
2022/07/26 03:05:28;;;;;;;6.20;4.97;;;20.00;1.00;;;;;;8331728;28;20265;-66
2022/07/26 03:09:29;;;;;;;6.40;5.00;;;19.90;1.00;;;;;;8325721;28;20239;-65
2022/07/26 03:13:29;;;;;;;6.00;5.40;;;19.80;59.00;;;;;;8337385;28;20194;-66
2022/07/26 03:17:30;;;;;;;5.30;4.80;;;19.80;99.90;;;;;;8336779;28;20199;-66
2022/07/26 03:21:31;;;;;;;8.77;5.60;;;19.70;99.90;;;;;;8320128;28;20197;-66
2022/07/26 03:25:32;;;;;;;7.17;5.10;;;19.60;1.00;;;;;;8334096;28;20182;-66
2022/07/26 03:29:32;;;;;;;8.10;5.27;;;19.60;1.00;;;;;;8318406;28;20213;-66
2022/07/26 03:33:33;;;;;;;6.67;4.97;;;19.50;1.00;;;;;;8340740;28;20186;-65
2022/07/26 03:37:34;;;;;;;6.43;5.20;;;19.50;1.00;;;;;;8319037;28;20214;-64
2022/07/26 03:41:35;;;;;;;6.20;5.07;;;19.50;1.00;;;;;;8320826;28;20182;-66
2022/07/26 03:45:35;;;;;;;9.37;5.50;;;19.50;99.90;;;;;;8323070;28;20194;-63
2022/07/26 03:49:36;;;;;;;5.47;4.80;;;19.50;99.90;;;;;;8323851;28;20221;-66
2022/07/26 03:53:37;;;;;;;9.30;5.60;;;19.50;1.00;;;;;;8324152;28;20224;-65
2022/07/26 03:57:38;;;;;;;5.77;4.90;;;19.60;1.00;;;;;;8336331;28;20190;-69
2022/07/26 04:01:42;;;;;;;7.73;4.83;;;19.60;1.00;;;;;;8322252;28;20182;-66
2022/07/26 04:05:43;;;;;;;7.73;5.00;;;19.60;1.00;;;;;;8333905;28;20186;-65
2022/07/26 04:09:47;;;;;;;6.90;5.00;;;19.60;1.00;;;;;;8333349;28;20236;-66
2022/07/26 04:13:47;;;;;;;6.43;4.80;;;19.60;99.90;;;;;;8327097;28;20182;-66
2022/07/26 04:17:48;;;;;;;7.40;4.33;;;19.70;4.10;;;;;;8334592;28;20197;-65
2022/07/26 04:21:49;;;;;;;5.50;4.47;;;19.70;1.00;;;;;;8318835;28;20240;-70
2022/07/26 04:25:50;;;;;;;7.37;5.00;;;19.70;1.00;;;;;;8320441;28;20193;-66
2022/07/26 04:29:50;;;;;;;6.13;4.33;;;19.60;1.00;;;;;;8326558;28;20214;-66
2022/07/26 04:33:51;;;;;;;7.67;4.40;;;19.60;1.00;;;;;;8316151;28;20209;-67
2022/07/26 04:37:52;;;;;;;4.70;4.20;;;19.70;1.00;;;;;;8312537;28;20191;-68
2022/07/26 04:41:53;;;;;;;6.97;4.10;;;19.70;1.00;;;;;;8327299;28;20197;-67
2022/07/26 04:45:56;;;;;;;4.40;4.00;;;19.70;99.90;;;;;;8329468;28;20867;-65
2022/07/26 04:49:56;;;;;;;5.10;4.23;;;19.70;1.00;;;;;;8330416;28;20459;-65
2022/07/26 04:53:57;;;;;;;5.10;4.33;;;19.80;99.90;;;;;;7784149;28;15111841;-67
2022/07/26 04:57:58;;;;;;;5.03;4.27;;;19.80;99.90;;;;;;8318664;28;20189;-65
2022/07/26 05:01:59;;;;;;;5.83;4.40;;;19.90;99.90;;;;;;8330213;28;20189;-66
2022/07/26 05:05:59;;;;;;;7.00;4.57;;;19.90;1.00;;;;;;8314409;28;20185;-65
2022/07/26 05:10:00;;;;;;;5.97;4.27;;;20.00;1.00;;;;;;8350636;28;20225;-65
2022/07/26 05:14:01;;;;;;;4.63;3.93;;;20.00;1.00;;;;;;8333825;28;20293;-66
2022/07/26 05:18:04;;;;;;;6.60;5.13;;;20.10;1.00;;;;;;8317761;28;20197;-65
2022/07/26 05:22:05;;;;;;;8.07;5.10;;;20.10;1.00;;;;;;8329659;28;20213;-67
2022/07/26 05:26:06;;;;;;;5.13;4.63;;;20.20;10.30;;;;;;8322663;28;20212;-67
2022/07/26 05:30:09;;;;;;;8.13;5.27;;;20.20;1.00;;;;;;8335481;28;20218;-67
2022/07/26 05:34:09;;;;;;;4.43;3.27;;;20.20;99.90;;;;;;8346338;28;20178;-66
2022/07/26 05:38:10;;;;;;;6.07;3.57;;;20.20;99.90;;;;;;8335705;28;20198;-66
2022/07/26 05:42:11;;;;;;;6.40;4.07;;;20.20;99.90;;;;;;8335433;28;20212;-71
2022/07/26 05:46:12;;;;;;;4.70;3.57;;;20.20;99.90;;;;;;8312881;28;20235;-66
2022/07/26 05:50:12;;;;;;;6.00;3.13;;;20.30;24.60;;;;;;8344928;28;20233;-66
2022/07/26 05:54:13;;;;;;;7.93;3.67;;;20.40;25.50;;;;;;8317693;28;20708;-68
2022/07/26 05:58:14;;;;;;;5.40;3.67;;;20.50;14.00;;;;;;8339328;28;20265;-68
2022/07/26 06:02:15;;;;;;;6.30;3.50;;;20.60;1.00;;;;;;8324464;28;20194;-67
2022/07/26 06:06:16;;;;;;;5.77;3.50;;;20.60;1.00;;;;;;8324408;28;20193;-70
2022/07/26 06:10:16;;;;;;;4.53;3.23;;;20.70;1.00;;;;;;8337146;28;20301;-68
2022/07/26 06:14:18;;;;;;;5.50;3.13;;;20.80;1.00;;;;;;8337923;28;20185;-67
2022/07/26 06:18:19;;;;;;;7.93;3.33;;;20.80;1.00;;;;;;8319957;28;20182;-68
2022/07/26 06:22:20;;;;;;;5.63;3.20;;;20.80;1.00;;;;;;8331029;28;20189;-66
2022/07/26 06:26:22;;;;;;;6.57;3.17;;;20.90;1.00;;;;;;8318918;28;20215;-68
2022/07/26 06:30:23;;;;;;;6.00;3.33;;;20.90;1.00;;;;;;8339860;28;20212;-65
2022/07/26 06:34:24;;;;;;;4.53;3.40;;;20.90;1.00;;;;;;8321092;28;20186;-67
2022/07/26 06:38:25;;;;;;;6.73;3.37;;;20.80;1.00;;;;;;8349513;28;20186;-67
2022/07/26 06:42:25;;;;;;;4.67;3.07;;;20.90;1.00;;;;;;8341423;28;20245;-67
2022/07/26 06:46:26;;;;;;;4.27;2.53;;;20.90;1.00;;;;;;8326190;28;20185;-69
2022/07/26 06:50:27;;;;;;;6.00;3.00;;;20.90;99.90;;;;;;8322525;28;20309;-68
2022/07/26 06:54:28;;;;;;;4.00;2.43;;;21.20;99.90;;;;;;8337166;28;20237;-67
2022/07/26 06:58:29;;;;;;;6.10;3.07;;;21.40;99.90;;;;;;8323943;28;20193;-66
2022/07/26 07:02:30;;;;;;;3.93;2.37;;;21.30;99.90;;;;;;8321688;28;20243;-66
2022/07/26 07:06:31;;;;;;;5.07;3.00;;;21.40;99.90;;;;;;8334001;28;20190;-67
2022/07/26 07:10:32;;;;;;;4.50;2.63;;;21.60;99.90;;;;;;8333778;28;20204;-70
2022/07/26 07:14:34;;;;;;;6.30;2.60;;;21.90;99.90;;;;;;8310600;28;20209;-68
2022/07/26 07:18:35;;;;;;;5.90;2.67;;;22.00;99.90;;;;;;8316751;28;20221;-67
2022/07/26 07:22:36;;;;;;;4.73;2.23;;;22.00;99.90;;;;;;8333982;28;20182;-66
2022/07/26 07:26:37;;;;;;;3.77;2.17;;;22.00;99.90;;;;;;8335183;28;20328;-68
2022/07/26 07:30:38;;;;;;;5.37;2.70;;;21.90;99.90;;;;;;8330640;28;20218;-64
2022/07/26 07:34:38;;;;;;;6.47;2.30;;;22.10;99.90;;;;;;8327611;28;20305;-68
2022/07/26 07:38:39;;;;;;;5.37;2.50;;;22.00;99.90;;;;;;8331066;28;20218;-66
2022/07/26 07:42:40;;;;;;;4.43;2.13;;;22.10;99.90;;;;;;8308100;28;20197;-69
2022/07/26 07:46:41;;;;;;;5.77;2.73;;;22.10;99.90;;;;;;8332941;28;20208;-67
2022/07/26 07:50:42;;;;;;;2.97;1.70;;;22.00;99.90;;;;;;8310427;28;20221;-67
2022/07/26 07:54:43;;;;;;;4.37;2.10;;;22.10;99.90;;;;;;8320791;28;20202;-66
2022/07/26 07:58:44;;;;;;;3.53;2.00;;;21.90;99.90;;;;;;8337068;28;20201;-65
2022/07/26 08:02:45;;;;;;;4.87;2.27;;;22.10;99.90;;;;;;8331942;28;20193;-62
2022/07/26 08:06:46;;;;;;;4.53;2.30;;;22.20;99.90;;;;;;8331747;28;20170;-66
2022/07/26 08:10:47;;;;;;;4.47;2.00;;;22.30;99.90;;;;;;8316721;28;20209;-66
2022/07/26 08:14:48;;;;;;;4.33;2.00;;;22.40;99.90;;;;;;8314885;28;20232;-65
2022/07/26 08:18:48;;;;;;;4.50;2.20;;;22.60;99.90;;;;;;8320623;28;20191;-66
2022/07/26 08:22:49;;;;;;;4.07;1.77;;;22.70;55.90;;;;;;8317123;28;20189;-62
2022/07/26 08:26:52;;;;;;;5.77;1.40;;;22.70;1.00;;;;;;8309153;28;20193;-65
2022/07/26 08:30:53;;;;;;;2.27;1.40;;;22.60;1.00;;;;;;8331239;28;20298;-66
2022/07/26 08:34:53;;;;;;;3.70;1.40;;;22.60;1.00;;;;;;8320161;28;20186;-67
2022/07/26 08:38:54;;;;;;;6.43;1.90;;;22.90;1.00;;;;;;8349507;28;20194;-67
2022/07/26 08:42:56;;;;;;;4.00;1.63;;;23.00;1.00;;;;;;8319440;28;20256;-67
2022/07/26 08:46:57;;;;;;;4.97;1.80;;;23.10;1.00;;;;;;8328959;28;20307;-62
2022/07/26 08:51:01;;;;;;;4.50;1.90;;;23.00;1.00;;;;;;8322220;28;20229;-66
2022/07/26 08:55:02;;;;;;;3.40;1.57;;;23.00;1.00;;;;;;8352805;28;20233;-66
2022/07/26 08:59:04;;;;;;;6.03;1.77;;;22.80;1.00;;;;;;8322970;28;20197;-68
2022/07/26 09:03:05;;;;;;;7.83;2.60;;;22.80;1.00;;;;;;8322235;28;20202;-67
2022/07/26 09:07:12;;;;;;;4.53;2.03;;;22.80;1.00;;;;;;8337933;28;20257;-64
2022/07/26 09:11:32;;;;;;;5.30;2.07;;;22.60;5.00;;;;;;8322325;28;20336;-69
2022/07/26 09:15:33;;;;;;;3.77;2.00;;;22.80;1.00;;;;;;8332154;28;20213;-67
2022/07/26 09:19:34;;;;;;;3.93;1.93;;;23.00;20.20;;;;;;8324297;28;20197;-65
2022/07/26 09:23:40;;;;;;;3.33;1.93;;;23.00;14.80;;;;;;8318709;28;20194;-66
2022/07/26 09:27:40;;;;;;;3.77;1.63;;;23.10;1.00;;;;;;8321688;28;20189;-66
2022/07/26 09:31:43;;;;;;;4.80;2.20;;;23.10;1.00;;;;;;8353748;28;20186;-69
2022/07/26 09:36:05;;;;;;;5.37;1.97;;;23.30;1.00;;;;;;8319197;28;20187;-67
2022/07/26 09:40:10;;;;;;;2.13;1.63;;;23.70;1.00;;;;;;8321653;28;20201;-66
2022/07/26 09:44:25;;;;;;;4.67;1.90;;;24.10;1.00;;;;;;8311715;28;20260;-66
2022/07/26 09:48:28;;;;;;;3.97;1.90;;;24.60;1.00;;;;;;8315501;28;20257;-69
2022/07/26 09:52:29;;;;;;;4.30;1.80;;;24.90;1.00;;;;;;8305161;28;20219;-67
2022/07/26 09:56:45;;;;;;;4.17;1.90;;;25.30;1.00;;;;;;8316587;28;20293;-66
2022/07/26 10:00:45;;;;;;;5.30;2.10;;;25.00;1.00;;;;;;8325880;28;20300;-64
2022/07/26 10:04:46;;;;;;;4.40;2.13;;;24.50;1.00;;;;;;8316774;28;20193;-63
2022/07/26 10:08:47;;;;;;;4.60;2.30;;;24.30;1.00;;;;;;8316003;28;20202;-69
2022/07/26 10:12:52;;;;;;;5.33;2.13;;;23.70;1.00;;;;;;8317675;28;20193;-65
2022/07/26 10:16:53;;;;;;;4.30;2.07;;;23.90;1.00;;;;;;8321953;28;20192;-69
2022/07/26 10:20:54;;;;;;;4.13;2.10;;;24.20;1.00;;;;;;8319166;28;20217;-67
2022/07/26 10:24:56;;;;;;;6.83;2.40;;;24.20;1.00;;;;;;8326703;28;20193;-71
2022/07/26 10:29:16;;;;;;;5.57;2.43;;;24.00;1.00;;;;;;8336265;28;20555;-66
2022/07/26 10:33:18;;;;;;;3.20;2.70;;;24.10;1.00;;;;;;8334197;28;20218;-68
2022/07/26 10:37:23;;;;;;;5.80;2.50;;;23.90;1.00;;;;;;8322422;28;20191;-69
2022/07/26 10:41:51;;;;;;;4.70;2.60;;;23.70;1.00;;;;;;8324801;28;20189;-70
2022/07/26 10:46:19;;;;;;;4.10;3.20;;;23.90;1.00;;;;;;8330212;28;20233;-69
2022/07/26 10:50:32;;;;;;;6.17;2.93;;;24.10;1.00;;;;;;8353218;28;20213;-68
2022/07/26 10:54:56;;;;;;;3.63;2.33;;;24.00;1.00;;;;;;8318179;28;20194;-66
2022/07/26 10:58:57;;;;;;;5.27;2.40;;;23.80;1.00;;;;;;8341600;28;20196;-66
2022/07/26 11:02:58;;;;;;;3.60;2.37;;;23.50;1.00;;;;;;8334830;28;20185;-63
2022/07/26 11:06:59;;;;;;;6.17;2.50;;;23.10;1.00;;;;;;8322258;28;20192;-65
2022/07/26 11:11:00;;;;;;;6.47;2.40;;;22.90;1.00;;;;;;8337641;28;20344;-68
2022/07/26 11:15:14;;;;;;;6.83;3.70;;;22.80;1.00;;;;;;8322920;28;20351;-66
2022/07/26 11:19:16;;;;;;;4.60;3.03;;;21.40;99.90;;;;;;8313518;28;20190;-64
2022/07/26 11:23:24;;;;;;;3.50;3.20;;;20.50;1.00;;;;;;8351013;28;20192;-65
2022/07/26 11:27:25;;;;;;;5.43;2.77;;;20.60;1.00;;;;;;8330964;28;20306;-65
2022/07/26 11:31:55;;;;;;;4.03;2.63;;;20.90;99.90;;;;;;8312300;28;20210;-66
2022/07/26 11:35:56;;;;;;;5.53;2.47;;;21.10;99.90;;;;;;8312050;28;20193;-63
2022/07/26 11:39:57;;;;;;;4.17;2.53;;;21.10;99.90;;;;;;8318380;28;20225;-65
2022/07/26 11:43:58;;;;;;;7.37;2.70;;;21.10;99.90;;;;;;8314944;28;20182;-66
2022/07/26 11:47:59;;;;;;;4.53;2.53;;;21.10;82.50;;;;;;8333624;28;20233;-65
2022/07/26 11:52:02;;;;;;;3.50;2.70;;;21.10;98.10;;;;;;8322444;28;20201;-66
2022/07/26 11:56:30;;;;;;;4.50;2.90;;;21.20;99.90;;;;;;8338894;28;20182;-64
2022/07/26 12:00:31;;;;;;;3.43;2.60;;;21.50;99.90;;;;;;8342296;28;20264;-65
2022/07/26 12:04:36;;;;;;;6.90;2.90;;;22.20;99.90;;;;;;8342598;28;20245;-67
2022/07/26 12:08:46;;;;;;;5.87;3.00;;;22.70;36.60;;;;;;8327658;28;20215;-64
2022/07/26 12:12:47;;;;;;;4.47;3.10;;;23.30;45.60;;;;;;8296691;28;20237;-64
2022/07/26 12:16:47;;;;;;;5.20;3.40;;;24.10;1.00;;;;;;8340562;28;20423;-63
2022/07/26 12:21:00;;;;;;;5.07;2.83;;;24.70;1.00;;;;;;8335219;28;20244;-65
2022/07/26 12:25:01;;;;;;;3.17;1.93;;;24.50;1.00;;;;;;8360749;28;20186;-66
2022/07/26 12:33:22;;;;;;;4.13;2.50;;;24.70;1.00;;;;;;8341669;28;20197;-67
2022/07/26 12:37:24;;;;;;;5.93;2.00;;;24.90;1.00;;;;;;8343850;28;20190;-67
2022/07/26 12:41:36;;;;;;;3.60;2.30;;;25.10;1.00;;;;;;8328994;28;20186;-66
2022/07/26 12:45:37;;;;;;;6.57;2.30;;;25.30;1.00;;;;;;8332085;28;20485;-66
2022/07/26 12:49:38;;;;;;;5.13;2.90;;;25.00;1.00;;;;;;8330917;28;20213;-65
2022/07/26 12:53:39;;;;;;;4.53;2.80;;;25.10;1.00;;;;;;8327819;28;20221;-65
2022/07/26 12:57:44;;;;;;;4.00;2.60;;;24.90;1.00;;;;;;8347638;28;20674;-67
2022/07/26 13:01:45;;;;;;;4.17;2.40;;;24.80;1.00;;;;;;8340136;28;20185;-64
2022/07/26 13:05:46;;;;;;;3.80;2.17;;;24.80;1.00;;;;;;8327526;28;20182;-66
2022/07/26 13:09:47;;;;;;;4.23;2.07;;;24.90;1.00;;;;;;8323893;28;20220;-64
2022/07/26 13:13:48;;;;;;;3.47;2.07;;;25.20;1.00;;;;;;8353758;28;20194;-66
2022/07/26 13:17:50;;;;;;;6.07;2.10;;;25.30;1.00;;;;;;8325252;28;20178;-68
2022/07/26 13:21:51;;;;;;;3.67;2.30;;;24.90;1.00;;;;;;8361422;28;20565;-66
2022/07/26 13:25:52;;;;;;;4.57;2.60;;;24.80;1.00;;;;;;8322510;28;20182;-65
2022/07/26 13:29:53;;;;;;;3.60;2.53;;;24.70;1.00;;;;;;8327523;28;20213;-68
2022/07/26 13:33:53;;;;;;;4.10;2.57;;;24.60;1.00;;;;;;8346433;28;20217;-65
2022/07/26 13:37:54;;;;;;;4.30;2.30;;;24.50;1.00;;;;;;8326940;28;20213;-66
2022/07/26 13:41:55;;;;;;;3.53;1.90;;;24.50;1.00;;;;;;8328668;28;20185;-67
2022/07/26 13:45:57;;;;;;;5.37;2.40;;;24.90;1.00;;;;;;8322382;28;20265;-64
2022/07/26 13:49:57;;;;;;;2.63;1.40;;;25.50;1.00;;;;;;8328198;28;20220;-63
2022/07/26 13:53:58;;;;;;;3.93;1.30;;;25.90;1.00;;;;;;8358506;28;20213;-63
2022/07/26 13:57:59;;;;;;;6.10;2.00;;;25.80;1.00;;;;;;8323641;28;20188;-66
2022/07/26 14:02:00;;;;;;;2.87;1.40;;;25.50;1.00;;;;;;8325121;28;20257;-63
2022/07/26 14:06:01;;;;;;;3.20;2.13;;;25.90;1.00;;;;;;8325598;28;20182;-65
2022/07/26 14:10:02;;;;;;;4.30;1.90;;;26.50;1.00;;;;;;8354421;28;20213;-64
2022/07/26 14:14:04;;;;;;;3.70;1.80;;;26.50;1.00;;;;;;8326917;28;20189;-65
2022/07/26 14:18:05;;;;;;;3.13;1.57;;;26.70;1.00;;;;;;8325643;28;20182;-66
2022/07/26 14:22:06;;;;;;;3.50;1.90;;;26.40;1.00;;;;;;8325145;28;20177;-64
2022/07/26 14:26:07;;;;;;;3.80;2.25;;;26.30;1.00;;;;;;8334766;28;20277;-65
2022/07/26 14:30:09;;;;;;;4.90;1.60;;;26.50;1.00;;;;;;8318887;28;20229;-66
2022/07/26 14:34:09;;;;;;;3.20;1.80;;;26.20;1.00;;;;;;8336920;28;20197;-66
2022/07/26 14:38:10;;;;;;;1.70;1.60;;;25.70;1.00;;;;;;8320595;28;20300;-66
2022/07/26 14:42:11;;;;;;;3.20;2.07;;;25.60;1.00;;;;;;8339860;28;20202;-65
2022/07/26 14:46:12;;;;;;;3.90;2.00;;;25.60;1.00;;;;;;8332057;28;20229;-65
2022/07/26 14:50:14;;;;;;;6.53;2.00;;;25.60;1.00;;;;;;8321029;28;20307;-65
2022/07/26 14:54:15;;;;;;;2.70;2.03;;;25.50;1.00;;;;;;8323802;28;20289;-66
2022/07/26 14:58:16;;;;;;;6.23;2.57;;;25.70;1.00;;;;;;8322427;28;20210;-66
2022/07/26 15:02:18;;;;;;;5.57;2.40;;;25.50;1.00;;;;;;8329634;28;20194;-66
2022/07/26 15:06:19;;;;;;;4.77;2.90;;;25.30;1.00;;;;;;8338726;28;20239;-64
2022/07/26 15:10:29;;;;;;;3.43;2.37;;;25.00;1.00;;;;;;8320899;28;20206;-67
2022/07/26 15:14:30;;;;;;;3.93;2.53;;;24.70;1.00;;;;;;8338820;28;20190;-64
2022/07/26 15:18:31;;;;;;;5.77;2.63;;;24.50;1.00;;;;;;8333920;28;20182;-66
2022/07/26 15:22:32;;;;;;;5.57;2.30;;;24.40;1.00;;;;;;8327680;28;20195;-65
2022/07/26 15:26:32;;;;;;;3.77;2.10;;;24.40;1.00;;;;;;8322480;28;20187;-68
2022/07/26 15:30:34;;;;;;;4.20;1.97;;;24.30;1.00;;;;;;8322607;28;20218;-68
2022/07/26 15:34:35;;;;;;;3.50;2.23;;;24.30;1.00;;;;;;8340338;28;20225;-64
2022/07/26 15:38:36;;;;;;;5.03;2.33;;;24.20;1.00;;;;;;8327859;28;20299;-66
2022/07/26 15:42:41;;;;;;;4.73;2.30;;;24.20;1.00;;;;;;8322404;28;20198;-69
2022/07/26 15:46:44;;;;;;;5.67;2.30;;;24.20;1.00;;;;;;8325989;28;20233;-65
2022/07/26 15:50:48;;;;;;;3.50;1.90;;;24.20;1.00;;;;;;8335518;28;20213;-67
2022/07/26 15:54:51;;;;;;;5.17;2.00;;;24.30;1.00;;;;;;8314412;28;20217;-65
2022/07/26 15:58:52;;;;;;;2.80;1.70;;;24.60;1.00;;;;;;8320850;28;20186;-65
2022/07/26 16:02:53;;;;;;;2.70;1.37;;;24.80;1.00;;;;;;8339707;28;20185;-66
2022/07/26 16:06:56;;;;;;;4.03;1.13;;;25.00;1.00;;;;;;8326734;28;20202;-66
2022/07/26 16:10:57;;;;;;;2.47;1.10;;;25.00;1.00;;;;;;8343052;28;20217;-67
2022/07/26 16:14:58;;;;;;;2.90;1.00;;;25.00;1.00;;;;;;8322978;28;20185;-63
2022/07/26 16:18:59;;;;;;;2.20;1.37;;;25.00;1.00;;;;;;8334572;28;20190;-64
2022/07/26 16:23:00;;;;;;;1.83;0.60;;;24.90;1.00;;;;;;8318928;28;20511;-66
2022/07/26 16:27:01;;;;;;;1.30;0.67;;;24.90;1.00;;;;;;8322486;28;20255;-65
2022/07/26 16:31:02;;;;;;;2.57;0.83;;;24.90;1.00;;;;;;8300727;28;20214;-65
2022/07/26 16:35:03;;;;;;;2.70;0.97;;;24.90;1.00;;;;;;8321493;28;20204;-65
2022/07/26 16:39:04;;;;;;;1.83;1.00;;;24.90;1.00;;;;;;8320096;28;20284;-65
2022/07/26 16:43:05;;;;;;;2.43;1.00;;;25.00;1.00;;;;;;8335555;28;20297;-73
2022/07/26 16:47:06;;;;;;;2.57;1.10;;;25.00;1.00;;;;;;8317866;28;20193;-66
2022/07/26 16:51:07;;;;;;;2.07;1.00;;;24.80;1.00;;;;;;8317182;28;20234;-65
2022/07/26 16:55:14;;;;;;;3.13;0.90;;;24.60;1.00;;;;;;8329091;28;20201;-65
2022/07/26 16:59:15;;;;;;;3.23;1.00;;;24.50;1.00;;;;;;8329580;28;20194;-63
2022/07/26 17:03:16;;;;;;;1.97;0.90;;;24.50;1.00;;;;;;8327657;28;20198;-65
2022/07/26 17:07:17;;;;;;;5.10;1.03;;;24.60;1.00;;;;;;8327193;28;20192;-66
2022/07/26 17:11:17;;;;;;;3.40;0.90;;;24.10;1.00;;;;;;8333101;28;20209;-65
2022/07/26 17:15:18;;;;;;;3.00;0.90;;;23.10;1.00;;;;;;8331193;28;20190;-65
2022/07/26 17:19:19;;;;;;;6.57;1.03;;;22.50;1.00;;;;;;8327202;28;20250;-67
2022/07/26 17:23:21;;;;;;;5.17;1.37;;;22.30;1.00;;;;;;8327885;28;20250;-65
2022/07/26 17:27:22;;;;;;;3.67;1.00;;;22.00;9.60;;;;;;8359594;28;20284;-63
2022/07/26 17:31:23;;;;;;;2.47;1.17;;;21.90;25.30;;;;;;8322505;28;20221;-64
2022/07/26 17:35:24;;;;;;;1.20;0.80;;;21.70;45.40;;;;;;8341969;28;20249;-64
2022/07/26 17:39:26;;;;;;;3.10;1.20;;;21.60;63.60;;;;;;8326418;28;20209;-62
2022/07/26 17:43:27;;;;;;;2.17;1.13;;;21.50;70.90;;;;;;8331211;28;20190;-64
2022/07/26 17:47:28;;;;;;;3.20;1.10;;;21.50;92.40;;;;;;8341615;28;20185;-64
2022/07/26 17:51:28;;;;;;;2.90;1.10;;;21.50;93.60;;;;;;8343046;28;20222;-67
2022/07/26 17:55:29;;;;;;;2.40;1.07;;;21.50;96.80;;;;;;8333512;28;20222;-64
2022/07/26 17:59:30;;;;;;;1.97;1.10;;;21.40;73.50;;;;;;8358612;28;20210;-63
2022/07/26 18:03:31;;;;;;;4.30;1.00;;;21.40;42.20;;;;;;8332937;28;20186;-63
2022/07/26 18:07:32;;;;;;;2.60;1.07;;;21.40;2.70;;;;;;8324364;28;20201;-69
2022/07/26 18:11:37;;;;;;;2.23;1.00;;;21.40;1.00;;;;;;8359718;28;20216;-66
2022/07/26 18:15:38;;;;;;;1.23;1.07;;;21.40;4.30;;;;;;8338800;28;20200;-63
2022/07/26 18:19:39;;;;;;;2.20;0.83;;;21.30;15.90;;;;;;8327292;28;20209;-63
2022/07/26 18:23:40;;;;;;;1.37;1.00;;;21.20;1.00;;;;;;8356420;28;20186;-62
2022/07/26 18:27:41;;;;;;;2.73;1.23;;;21.10;2.20;;;;;;8322986;28;20189;-64
2022/07/26 18:31:42;;;;;;;2.10;1.00;;;20.90;11.10;;;;;;8341892;28;20213;-64
2022/07/26 18:35:43;;;;;;;2.13;0.97;;;20.80;33.30;;;;;;8333282;28;20300;-63
2022/07/26 18:39:44;;;;;;;3.20;1.00;;;20.70;31.90;;;;;;8321799;28;20194;-65
2022/07/26 18:43:44;;;;;;;1.00;0.70;;;20.80;27.50;;;;;;8326568;28;20217;-64
2022/07/26 18:47:45;;;;;;;0.83;0.60;;;20.70;35.30;;;;;;8342040;28;20217;-65
2022/07/26 18:51:46;;;;;;;0.83;0.73;;;20.60;53.40;;;;;;8342106;28;20209;-65
2022/07/26 18:55:48;;;;;;;1.60;0.77;;;20.50;70.90;;;;;;8336158;28;20199;-64
2022/07/26 18:59:55;;;;;;;0.97;0.60;;;20.40;91.50;;;;;;8326489;28;20205;-64
2022/07/26 19:03:56;;;;;;;2.67;0.90;;;20.30;99.90;;;;;;8336825;28;20193;-63
2022/07/26 19:07:57;;;;;;;1.07;0.90;;;20.20;99.90;;;;;;8340922;28;20186;-65
2022/07/26 19:11:58;;;;;;;2.10;0.90;;;20.20;99.90;;;;;;8337581;28;20229;-64
2022/07/26 19:15:59;;;;;;;4.10;0.73;;;20.00;99.90;;;;;;8332350;28;20181;-65
2022/07/26 19:20:00;;;;;;;1.97;0.73;;;19.90;99.90;;;;;;8314363;28;20182;-63
2022/07/26 19:24:01;;;;;;;1.63;0.70;;;19.90;99.90;;;;;;8337646;28;20200;-64
2022/07/26 19:28:04;;;;;;;2.10;0.90;;;19.80;99.90;;;;;;8302093;28;20229;-64
2022/07/26 19:32:06;;;;;;;1.10;0.57;;;19.70;99.90;;;;;;8314523;28;20297;-63
2022/07/26 19:36:07;;;;;;;1.73;0.70;;;19.60;99.90;;;;;;8332472;28;20245;-64
2022/07/26 19:40:09;;;;;;;1.63;0.90;;;19.50;99.90;;;;;;8318769;28;20256;-67
2022/07/26 19:44:09;;;;;;;1.10;0.60;;;19.40;99.90;;;;;;8311873;28;20186;-63
2022/07/26 19:48:10;;;;;;;1.40;0.80;;;19.30;99.90;;;;;;8338012;28;20196;-64
2022/07/26 19:52:11;;;;;;;1.47;0.87;;;19.20;99.90;;;;;;8323399;28;20348;-64
2022/07/26 19:56:12;;;;;;;2.73;0.80;;;19.10;99.90;;;;;;8336766;28;20236;-62
2022/07/26 20:00:14;;;;;;;1.17;0.70;;;19.00;99.90;;;;;;8320034;28;20195;-62
2022/07/26 20:04:15;;;;;;;1.90;0.90;;;19.00;99.90;;;;;;8313305;28;20198;-64
2022/07/26 20:08:15;;;;;;;1.30;0.90;;;18.90;99.90;;;;;;8329289;28;20194;-68
2022/07/26 20:12:18;;;;;;;1.70;1.10;;;18.80;99.90;;;;;;8318911;28;20217;-63
2022/07/26 20:16:19;;;;;;;1.10;0.87;;;18.70;99.90;;;;;;8321187;28;20198;-65
2022/07/26 20:20:21;;;;;;;1.60;0.80;;;18.70;1.00;;;;;;8324098;28;20221;-64
2022/07/26 20:24:22;;;;;;;1.63;0.90;;;18.60;1.00;;;;;;8320874;28;20192;-63
2022/07/26 20:28:23;;;;;;;2.23;1.10;;;18.50;1.00;;;;;;8335076;28;20182;-63
2022/07/26 20:32:24;;;;;;;1.40;1.00;;;18.40;1.00;;;;;;8331543;28;20284;-65
2022/07/26 20:36:25;;;;;;;2.00;1.10;;;18.30;1.00;;;;;;8315882;28;20227;-65
2022/07/26 20:40:27;;;;;;;1.83;1.00;;;18.20;1.00;;;;;;8325894;28;20193;-62
2022/07/26 20:44:28;;;;;;;1.93;1.10;;;18.00;1.00;;;;;;8329706;28;20195;-63
2022/07/26 20:48:29;;;;;;;1.90;0.90;;;17.90;1.00;;;;;;8332640;28;20201;-63
2022/07/26 20:52:30;;;;;;;2.60;1.33;;;17.80;32.50;;;;;;8325307;28;20263;-64
2022/07/26 20:56:31;;;;;;;2.27;1.10;;;17.70;89.20;;;;;;8344824;28;20252;-63
2022/07/26 21:00:32;;;;;;;1.77;1.33;;;17.60;99.90;;;;;;8328044;28;20186;-62
2022/07/26 21:04:33;;;;;;;3.10;1.20;;;17.50;99.90;;;;;;8328761;28;20193;-63
2022/07/26 21:08:35;;;;;;;3.03;1.40;;;17.50;99.90;;;;;;8322684;28;20213;-65
2022/07/26 21:12:36;;;;;;;2.13;1.37;;;17.40;99.90;;;;;;8345386;28;20182;-67